createdAt,value
2022-11-07T00:01:47.797Z,12.50
2022-11-07T00:04:15.219Z,12.50
2022-11-07T00:06:42.225Z,12.50
2022-11-07T00:09:09.004Z,12.50
2022-11-07T00:11:35.690Z,12.50
2022-11-07T00:14:03.287Z,12.50
2022-11-07T00:16:31.760Z,12.50
2022-11-07T00:18:59.280Z,12.50
2022-11-07T00:21:25.940Z,12.50
2022-11-07T00:23:54.092Z,12.50
2022-11-07T00:26:22.121Z,12.50
2022-11-07T00:28:49.027Z,12.50
2022-11-07T00:31:16.484Z,12.50
2022-11-07T00:33:44.258Z,12.50
2022-11-07T00:36:17.955Z,12.50
2022-11-07T00:38:44.788Z,12.50
2022-11-07T00:41:11.840Z,12.50
2022-11-07T00:43:38.605Z,12.50
2022-11-07T00:46:07.824Z,12.50
2022-11-07T00:48:35.179Z,12.50
2022-11-07T00:51:11.098Z,12.50
2022-11-07T00:53:38.543Z,12.50
2022-11-07T00:56:08.589Z,12.50
2022-11-07T00:58:36.068Z,12.60
2022-11-07T01:01:15.923Z,12.60
2022-11-07T01:04:01.819Z,12.60
2022-11-07T01:06:35.017Z,12.60
2022-11-07T01:09:02.004Z,12.60
2022-11-07T01:11:30.223Z,12.60
2022-11-07T01:14:02.373Z,12.60
2022-11-07T01:16:30.433Z,12.60
2022-11-07T01:18:57.292Z,12.60
2022-11-07T01:21:24.169Z,12.50
2022-11-07T01:23:50.918Z,12.50
2022-11-07T01:26:18.213Z,12.50
2022-11-07T01:28:45.388Z,12.40
2022-11-07T01:31:14.351Z,12.40
2022-11-07T01:33:41.246Z,12.40
2022-11-07T01:36:12.843Z,12.40
2022-11-07T01:38:41.553Z,12.30
2022-11-07T01:41:22.360Z,12.40
2022-11-07T01:43:57.865Z,12.40
2022-11-07T01:46:39.724Z,12.40
2022-11-07T01:49:31.076Z,12.40
2022-11-07T01:52:18.780Z,12.40
2022-11-07T01:55:01.276Z,12.40
2022-11-07T01:57:40.969Z,12.40
2022-11-07T02:00:13.501Z,12.40
2022-11-07T02:02:41.776Z,12.50
2022-11-07T02:05:09.571Z,12.50
2022-11-07T02:07:38.204Z,12.60
2022-11-07T02:10:06.993Z,12.60
2022-11-07T02:12:34.129Z,12.60
2022-11-07T02:15:01.725Z,12.50
2022-11-07T02:17:29.075Z,12.50
2022-11-07T02:19:56.785Z,12.60
2022-11-07T02:22:41.177Z,12.60
2022-11-07T02:25:11.124Z,12.60
2022-11-07T02:27:39.788Z,12.60
2022-11-07T02:30:17.506Z,12.50
2022-11-07T02:32:44.492Z,12.50
2022-11-07T02:35:36.485Z,12.50
2022-11-07T02:38:17.386Z,12.50
2022-11-07T02:40:49.565Z,12.40
2022-11-07T02:43:19.378Z,12.50
2022-11-07T02:45:49.392Z,12.50
2022-11-07T02:48:16.283Z,12.50
2022-11-07T02:50:44.830Z,12.50
2022-11-07T02:53:11.895Z,12.50
2022-11-07T02:55:38.832Z,12.60
2022-11-07T02:58:05.683Z,12.60
2022-11-07T03:00:32.448Z,12.60
2022-11-07T03:02:59.305Z,12.60
2022-11-07T03:05:29.860Z,12.60
2022-11-07T03:07:56.568Z,12.60
2022-11-07T03:10:23.333Z,12.60
2022-11-07T03:12:50.084Z,12.60
2022-11-07T03:15:17.841Z,12.60
2022-11-07T03:17:44.622Z,12.60
2022-11-07T03:20:13.176Z,12.60
2022-11-07T03:22:39.997Z,12.60
2022-11-07T03:25:07.630Z,12.60
2022-11-07T03:27:34.389Z,12.60
2022-11-07T03:30:01.275Z,12.60
2022-11-07T03:32:30.141Z,12.60
2022-11-07T03:34:56.900Z,12.60
2022-11-07T03:37:23.677Z,12.60
2022-11-07T03:39:50.428Z,12.70
2022-11-07T03:42:18.373Z,12.60
2022-11-07T03:44:45.140Z,12.70
2022-11-07T03:47:13.042Z,12.70
2022-11-07T03:49:39.726Z,12.70
2022-11-07T03:52:07.909Z,12.70
2022-11-07T03:54:34.786Z,12.70
2022-11-07T03:57:01.476Z,12.70
2022-11-07T03:59:28.231Z,12.70
2022-11-07T04:01:55.879Z,12.80
2022-11-07T04:04:23.735Z,12.80
2022-11-07T04:06:52.725Z,12.80
2022-11-07T04:09:19.470Z,12.80
2022-11-07T04:12:04.827Z,12.80
2022-11-07T04:14:50.304Z,12.80
2022-11-07T04:17:19.282Z,12.80
2022-11-07T04:19:50.382Z,12.80
2022-11-07T04:22:17.665Z,12.80
2022-11-07T04:24:46.170Z,12.80
2022-11-07T04:27:33.263Z,12.90
2022-11-07T04:30:19.003Z,12.90
2022-11-07T04:32:57.351Z,12.90
2022-11-07T04:35:28.527Z,12.80
2022-11-07T04:37:55.325Z,12.90
2022-11-07T04:40:22.712Z,12.80
2022-11-07T04:42:50.126Z,12.80
2022-11-07T04:45:17.579Z,12.90
2022-11-07T04:47:44.523Z,12.80
2022-11-07T04:50:14.211Z,12.90
2022-11-07T04:52:41.378Z,12.90
2022-11-07T04:55:10.135Z,12.90
2022-11-07T04:57:37.877Z,12.90
2022-11-07T05:00:05.052Z,12.90
2022-11-07T05:02:32.942Z,13.00
2022-11-07T05:04:59.699Z,13.00
2022-11-07T05:07:26.405Z,13.00
2022-11-07T05:09:53.122Z,13.00
2022-11-07T05:12:19.873Z,13.00
2022-11-07T05:14:47.958Z,13.00
2022-11-07T05:17:15.868Z,13.00
2022-11-07T05:19:45.899Z,13.00
2022-11-07T05:22:31.134Z,13.00
2022-11-07T05:24:57.815Z,12.90
2022-11-07T05:27:25.106Z,12.90
2022-11-07T05:29:52.054Z,13.00
2022-11-07T05:32:21.881Z,13.00
2022-11-07T05:34:49.476Z,13.00
2022-11-07T05:37:16.172Z,13.00
2022-11-07T05:39:44.004Z,13.00
2022-11-07T05:42:10.689Z,13.00
2022-11-07T05:44:38.998Z,13.00
2022-11-07T05:47:05.714Z,13.00
2022-11-07T05:49:32.968Z,13.00
2022-11-07T05:51:59.920Z,13.00
2022-11-07T05:54:28.175Z,13.00
2022-11-07T05:56:58.368Z,13.10
2022-11-07T05:59:25.603Z,13.10
2022-11-07T06:01:53.314Z,13.10
2022-11-07T06:04:23.056Z,13.10
2022-11-07T06:06:49.951Z,13.10
2022-11-07T06:09:16.764Z,13.10
2022-11-07T06:11:43.527Z,13.10
2022-11-07T06:14:10.402Z,13.10
2022-11-07T06:16:38.455Z,13.10
2022-11-07T06:19:05.344Z,13.10
2022-11-07T06:21:32.379Z,13.10
2022-11-07T06:23:59.403Z,13.10
2022-11-07T06:26:26.771Z,13.10
2022-11-07T06:28:54.732Z,13.20
2022-11-07T06:31:22.155Z,13.20
2022-11-07T06:33:52.203Z,13.20
2022-11-07T06:36:19.666Z,13.20
2022-11-07T06:38:50.505Z,13.20
2022-11-07T06:41:18.271Z,13.20
2022-11-07T06:43:45.148Z,13.20
2022-11-07T06:46:13.699Z,13.20
2022-11-07T06:48:40.996Z,13.30
2022-11-07T06:51:09.918Z,13.30
2022-11-07T06:53:36.743Z,13.30
2022-11-07T06:56:06.065Z,13.30
2022-11-07T06:58:34.956Z,13.30
2022-11-07T07:03:30.411Z,13.40
2022-11-07T07:06:05.665Z,13.40
2022-11-07T07:08:33.207Z,13.40
2022-11-07T07:11:05.305Z,13.40
2022-11-07T07:13:33.480Z,13.40
2022-11-07T07:16:00.472Z,13.40
2022-11-07T07:18:27.981Z,13.40
2022-11-07T07:21:06.611Z,13.40
2022-11-07T07:23:38.625Z,13.50
2022-11-07T07:26:07.620Z,13.50
2022-11-07T07:28:35.023Z,13.50
2022-11-07T07:31:11.287Z,13.50
2022-11-07T07:33:38.277Z,13.40
2022-11-07T07:36:05.880Z,13.50
2022-11-07T07:38:33.192Z,13.50
2022-11-07T07:41:01.971Z,13.50
2022-11-07T07:43:29.865Z,13.60
2022-11-07T07:46:05.632Z,13.60
2022-11-07T07:48:32.917Z,13.60
2022-11-07T07:51:01.493Z,13.70
2022-11-07T07:53:28.813Z,13.70
2022-11-07T07:56:00.902Z,13.70
2022-11-07T07:58:27.951Z,13.70
2022-11-07T08:00:58.339Z,13.80
2022-11-07T08:03:29.353Z,13.80
2022-11-07T08:06:02.550Z,13.90
2022-11-07T08:08:33.836Z,13.80
2022-11-07T08:11:05.506Z,13.80
2022-11-07T08:13:33.493Z,13.80
2022-11-07T08:16:03.023Z,13.90
2022-11-07T08:18:29.783Z,13.90
2022-11-07T08:20:57.091Z,13.90
2022-11-07T08:23:24.615Z,13.90
2022-11-07T08:25:57.242Z,13.90
2022-11-07T08:28:28.493Z,14.00
2022-11-07T08:31:09.811Z,14.00
2022-11-07T08:33:36.968Z,14.00
2022-11-07T08:36:06.001Z,14.00
2022-11-07T08:38:36.301Z,14.00
2022-11-07T08:41:04.033Z,14.00
2022-11-07T08:43:30.902Z,14.00
2022-11-07T08:45:57.813Z,14.10
2022-11-07T08:48:24.933Z,14.10
2022-11-07T08:50:53.973Z,14.20
2022-11-07T08:53:26.939Z,14.20
2022-11-07T08:56:01.602Z,14.20
2022-11-07T08:58:30.352Z,14.20
2022-11-07T09:00:57.696Z,14.20
2022-11-07T09:03:44.393Z,14.20
2022-11-07T09:06:13.317Z,14.20
2022-11-07T09:08:42.807Z,14.30
2022-11-07T09:11:10.835Z,14.30
2022-11-07T09:13:38.103Z,14.30
2022-11-07T09:16:05.543Z,14.40
2022-11-07T09:18:32.983Z,14.50
2022-11-07T09:21:00.746Z,14.60
2022-11-07T09:25:55.022Z,14.80
2022-11-07T09:28:23.134Z,14.80
2022-11-07T09:30:54.439Z,14.90
2022-11-07T09:33:24.759Z,15.00
2022-11-07T09:35:54.908Z,15.10
2022-11-07T09:38:21.780Z,15.20
2022-11-07T09:41:19.219Z,15.20
2022-11-07T09:43:59.926Z,15.30
2022-11-07T09:47:01.174Z,15.40
2022-11-07T09:49:45.093Z,15.40
2022-11-07T09:52:38.451Z,15.50
2022-11-07T09:55:21.550Z,15.50
2022-11-07T09:57:50.263Z,15.50
2022-11-07T10:00:19.437Z,15.60
2022-11-07T10:02:55.137Z,15.60
2022-11-07T10:05:43.084Z,15.60
2022-11-07T10:08:37.840Z,15.70
2022-11-07T10:11:08.808Z,15.70
2022-11-07T10:13:49.590Z,15.80
2022-11-07T10:16:31.459Z,15.80
2022-11-07T10:19:03.791Z,15.80
2022-11-07T10:21:44.713Z,15.80
2022-11-07T10:24:34.119Z,15.90
2022-11-07T10:27:02.049Z,16.00
2022-11-07T10:29:55.406Z,16.00
2022-11-07T10:32:36.139Z,16.10
2022-11-07T10:35:38.500Z,16.10
2022-11-07T10:38:34.290Z,16.20
2022-11-07T10:41:01.453Z,16.20
2022-11-07T10:43:40.963Z,16.30
2022-11-07T10:46:16.609Z,16.40
2022-11-07T10:49:01.516Z,16.40
2022-11-07T10:51:39.687Z,16.50
2022-11-07T10:54:07.508Z,16.50
2022-11-07T10:56:48.004Z,16.50
2022-11-07T10:59:30.133Z,16.60
2022-11-07T11:02:01.321Z,16.60
2022-11-07T11:04:35.061Z,16.50
2022-11-07T11:07:13.828Z,16.60
2022-11-07T11:09:53.996Z,16.50
2022-11-07T11:12:32.249Z,16.50
2022-11-07T11:15:12.083Z,16.60
2022-11-07T11:17:39.535Z,16.60
2022-11-07T11:23:41.114Z,16.50
2022-11-07T11:26:15.870Z,16.50
2022-11-07T11:29:13.917Z,16.60
2022-11-07T11:31:45.266Z,16.50
2022-11-07T11:34:26.832Z,16.50
2022-11-07T11:37:20.651Z,16.60
2022-11-07T11:39:50.384Z,16.50
2022-11-07T11:42:42.494Z,16.60
2022-11-07T11:45:53.986Z,16.60
2022-11-07T11:48:33.656Z,16.60
2022-11-07T11:51:07.581Z,16.70
2022-11-07T11:53:37.384Z,16.60
2022-11-07T11:56:31.283Z,16.70
2022-11-07T11:59:07.677Z,16.70
2022-11-07T12:02:27.984Z,16.70
2022-11-07T12:05:22.734Z,16.70
2022-11-07T12:08:10.394Z,16.70
2022-11-07T12:10:43.959Z,16.70
2022-11-07T12:13:52.075Z,16.60
2022-11-07T12:16:37.481Z,16.60
2022-11-07T12:19:07.103Z,16.60
2022-11-07T12:22:00.608Z,16.70
2022-11-07T12:24:33.676Z,16.70
2022-11-07T12:27:25.603Z,16.70
2022-11-07T12:30:16.884Z,16.70
2022-11-07T12:32:52.435Z,16.70
2022-11-07T12:35:48.885Z,16.70
2022-11-07T12:38:18.666Z,16.70
2022-11-07T12:41:25.061Z,16.70
2022-11-07T12:43:57.641Z,16.70
2022-11-07T12:46:38.180Z,16.70
2022-11-07T12:49:26.378Z,16.80
2022-11-07T12:52:14.472Z,16.80
2022-11-07T12:54:53.588Z,16.90
2022-11-07T12:57:26.831Z,16.90
2022-11-07T13:00:06.894Z,16.90
2022-11-07T13:03:04.721Z,16.90
2022-11-07T13:05:57.195Z,17.00
2022-11-07T13:08:55.793Z,16.90
2022-11-07T13:11:42.441Z,16.90
2022-11-07T13:14:24.477Z,16.80
2022-11-07T13:17:11.045Z,16.90
2022-11-07T13:19:43.445Z,16.80
2022-11-07T13:22:16.298Z,16.80
2022-11-07T13:25:17.449Z,16.70
2022-11-07T13:28:09.733Z,16.70
2022-11-07T13:30:39.880Z,16.70
2022-11-07T13:33:24.411Z,16.70
2022-11-07T13:35:56.775Z,16.70
2022-11-07T13:38:27.105Z,16.70
2022-11-07T13:41:04.123Z,16.80
2022-11-07T13:43:58.863Z,16.90
2022-11-07T13:46:38.591Z,16.90
2022-11-07T13:49:26.909Z,16.90
2022-11-07T13:52:09.130Z,16.80
2022-11-07T13:58:08.429Z,16.80
2022-11-07T14:00:39.133Z,16.80
2022-11-07T14:03:07.159Z,16.80
2022-11-07T14:05:39.542Z,16.80
2022-11-07T14:08:28.469Z,16.80
2022-11-07T14:11:00.207Z,16.90
2022-11-07T14:13:33.168Z,16.90
2022-11-07T14:16:20.977Z,16.80
2022-11-07T14:18:51.499Z,16.90
2022-11-07T14:21:23.786Z,16.90
2022-11-07T14:23:55.470Z,16.80
2022-11-07T14:26:28.226Z,16.80
2022-11-07T14:28:56.947Z,16.80
2022-11-07T14:31:29.652Z,16.80
2022-11-07T14:34:02.459Z,16.80
2022-11-07T14:36:30.023Z,16.80
2022-11-07T14:39:11.396Z,16.70
2022-11-07T14:41:45.983Z,16.70
2022-11-07T14:44:36.287Z,16.70
2022-11-07T14:47:15.964Z,16.80
2022-11-07T14:49:46.007Z,16.80
2022-11-07T14:52:31.979Z,16.80
2022-11-07T14:55:31.436Z,16.80
2022-11-07T14:58:03.238Z,16.90
2022-11-07T15:00:36.148Z,16.90
2022-11-07T15:03:06.346Z,16.80
2022-11-07T15:05:40.216Z,16.80
2022-11-07T15:08:26.345Z,16.90
2022-11-07T15:11:05.916Z,16.90
2022-11-07T15:13:33.592Z,16.90
2022-11-07T15:16:08.257Z,16.80
2022-11-07T15:18:41.406Z,16.80
2022-11-07T15:21:12.920Z,16.80
2022-11-07T15:23:39.718Z,16.80
2022-11-07T15:26:07.875Z,16.70
2022-11-07T15:28:47.913Z,16.80
2022-11-07T15:31:22.749Z,16.80
2022-11-07T15:33:55.105Z,16.80
2022-11-07T15:36:22.946Z,16.80
2022-11-07T15:38:50.596Z,16.80
2022-11-07T15:41:22.762Z,16.80
2022-11-07T15:43:50.648Z,16.70
2022-11-07T15:46:38.099Z,16.70
2022-11-07T15:49:06.604Z,16.70
2022-11-07T15:51:34.025Z,16.70
2022-11-07T15:54:03.533Z,16.60
2022-11-07T15:56:30.400Z,16.60
2022-11-07T15:58:57.205Z,16.60
2022-11-07T16:01:25.773Z,16.70
2022-11-07T16:03:52.620Z,16.60
2022-11-07T16:06:30.765Z,16.60
2022-11-07T16:08:58.151Z,16.60
2022-11-07T16:11:25.040Z,16.60
2022-11-07T16:13:59.273Z,16.60
2022-11-07T16:16:41.086Z,16.60
2022-11-07T16:19:14.661Z,16.60
2022-11-07T16:21:43.370Z,16.70
2022-11-07T16:24:10.885Z,16.70
2022-11-07T16:26:46.377Z,16.70
2022-11-07T16:29:18.970Z,16.70
2022-11-07T16:31:45.679Z,16.80
2022-11-07T16:34:16.984Z,16.70
2022-11-07T16:36:44.196Z,16.70
2022-11-07T16:39:23.248Z,16.70
2022-11-07T16:41:54.675Z,16.70
2022-11-07T16:44:26.326Z,16.70
2022-11-07T16:47:00.314Z,16.70
2022-11-07T16:49:35.047Z,16.70
2022-11-07T16:52:02.140Z,16.70
2022-11-07T16:54:30.623Z,16.70
2022-11-07T16:56:58.602Z,16.80
2022-11-07T16:59:25.470Z,16.80
2022-11-07T17:01:54.839Z,16.70
2022-11-07T17:04:23.657Z,16.70
2022-11-07T17:06:50.658Z,16.70
2022-11-07T17:09:21.696Z,16.60
2022-11-07T17:11:54.875Z,16.60
2022-11-07T17:14:26.305Z,16.50
2022-11-07T17:16:55.982Z,16.40
2022-11-07T17:19:24.232Z,16.40
2022-11-07T17:21:52.227Z,16.40
2022-11-07T17:24:21.000Z,16.30
2022-11-07T17:26:47.669Z,16.20
2022-11-07T17:29:17.626Z,16.10
2022-11-07T17:31:44.705Z,16.20
2022-11-07T17:34:14.579Z,16.10
2022-11-07T17:36:49.483Z,16.10
2022-11-07T17:39:19.914Z,16.10
2022-11-07T17:41:48.744Z,16.00
2022-11-07T17:44:16.654Z,16.00
2022-11-07T17:46:46.716Z,16.00
2022-11-07T17:49:16.113Z,16.00
2022-11-07T17:51:43.259Z,16.00
2022-11-07T17:54:20.289Z,15.90
2022-11-07T17:56:48.165Z,15.90
2022-11-07T17:59:17.395Z,15.90
2022-11-07T18:01:45.784Z,15.90
2022-11-07T18:04:13.764Z,15.90
2022-11-07T18:06:42.650Z,15.90
2022-11-07T18:09:15.496Z,15.90
2022-11-07T18:11:42.680Z,15.90
2022-11-07T18:14:11.996Z,15.90
2022-11-07T18:16:39.201Z,15.90
2022-11-07T18:19:06.552Z,15.90
2022-11-07T18:21:33.659Z,15.90
2022-11-07T18:24:00.597Z,16.00
2022-11-07T18:26:30.916Z,16.00
2022-11-07T18:29:03.807Z,16.00
2022-11-07T18:31:31.096Z,16.00
2022-11-07T18:34:00.222Z,16.00
2022-11-07T18:36:27.664Z,16.00
2022-11-07T18:38:54.545Z,16.00
2022-11-07T18:41:24.165Z,16.00
2022-11-07T18:43:50.959Z,16.00
2022-11-07T18:46:19.406Z,16.10
2022-11-07T18:48:47.810Z,16.10
2022-11-07T18:54:05.666Z,16.10
2022-11-07T18:56:33.003Z,16.10
2022-11-07T18:58:59.928Z,16.10
2022-11-07T19:01:30.998Z,16.10
2022-11-07T19:04:01.484Z,16.00
2022-11-07T19:06:30.214Z,16.00
2022-11-07T19:08:57.801Z,16.00
2022-11-07T19:11:29.326Z,16.00
2022-11-07T19:14:04.870Z,15.90
2022-11-07T19:16:31.777Z,15.90
2022-11-07T19:19:00.276Z,15.90
2022-11-07T19:21:27.266Z,16.00
2022-11-07T19:23:54.082Z,15.90
2022-11-07T19:26:22.231Z,15.90
2022-11-07T19:28:49.560Z,15.90
2022-11-07T19:31:16.932Z,15.80
2022-11-07T19:33:43.919Z,15.80
2022-11-07T19:36:18.455Z,15.80
2022-11-07T19:38:46.274Z,15.80
2022-11-07T19:41:14.292Z,15.70
2022-11-07T19:43:44.717Z,15.70
2022-11-07T19:46:15.215Z,15.70
2022-11-07T19:48:44.277Z,15.70
2022-11-07T19:51:21.660Z,15.60
2022-11-07T19:53:53.973Z,15.50
2022-11-07T19:56:21.277Z,15.50
2022-11-07T19:58:48.107Z,15.50
2022-11-07T20:01:18.250Z,15.50
2022-11-07T20:03:49.388Z,15.50
2022-11-07T20:06:19.463Z,15.50
2022-11-07T20:08:46.726Z,15.40
2022-11-07T20:11:19.607Z,15.40
2022-11-07T20:13:49.049Z,15.40
2022-11-07T20:16:17.109Z,15.50
2022-11-07T20:18:44.168Z,15.40
2022-11-07T20:21:17.998Z,15.50
2022-11-07T20:23:46.961Z,15.50
2022-11-07T20:26:20.833Z,15.40
2022-11-07T20:28:49.175Z,15.40
2022-11-07T20:31:22.294Z,15.40
2022-11-07T20:33:49.409Z,15.40
2022-11-07T20:36:18.092Z,15.40
2022-11-07T20:38:45.211Z,15.40
2022-11-07T20:41:13.342Z,15.30
2022-11-07T20:43:41.146Z,15.30
2022-11-07T20:46:17.118Z,15.30
2022-11-07T20:48:44.240Z,15.20
2022-11-07T20:51:20.556Z,15.10
2022-11-07T20:53:50.400Z,15.20
2022-11-07T20:56:19.594Z,15.10
2022-11-07T20:58:48.550Z,15.10
2022-11-07T21:01:18.085Z,15.10
2022-11-07T21:03:45.275Z,15.10
2022-11-07T21:06:12.391Z,15.10
2022-11-07T21:08:41.140Z,15.10
2022-11-07T21:11:08.779Z,15.10
2022-11-07T21:13:36.010Z,15.10
2022-11-07T21:16:02.843Z,15.10
2022-11-07T21:18:29.702Z,15.10
2022-11-07T21:21:06.796Z,15.10
2022-11-07T21:23:34.081Z,15.10
2022-11-07T21:26:06.709Z,15.10
2022-11-07T21:28:35.024Z,15.10
2022-11-07T21:31:03.750Z,15.10
2022-11-07T21:33:31.337Z,15.10
2022-11-07T21:35:59.591Z,15.00
2022-11-07T21:38:26.589Z,15.10
2022-11-07T21:40:53.592Z,15.10
2022-11-07T21:43:20.551Z,15.10
2022-11-07T21:45:48.527Z,15.10
2022-11-07T21:48:16.724Z,15.20
2022-11-07T21:50:45.028Z,15.20
2022-11-07T21:53:12.472Z,15.30
2022-11-07T21:55:40.218Z,15.30
2022-11-07T21:58:06.912Z,15.30
2022-11-07T22:00:36.489Z,15.20
2022-11-07T22:03:04.397Z,15.20
2022-11-07T22:05:31.225Z,15.20
2022-11-07T22:07:58.077Z,15.20
2022-11-07T22:10:24.843Z,15.10
2022-11-07T22:12:56.958Z,15.10
2022-11-07T22:15:23.663Z,15.00
2022-11-07T22:17:50.513Z,15.00
2022-11-07T22:20:17.319Z,14.90
2022-11-07T22:22:46.140Z,15.00
2022-11-07T22:25:12.818Z,14.90
2022-11-07T22:27:39.635Z,14.90
2022-11-07T22:30:06.968Z,14.80
2022-11-07T22:32:33.766Z,14.90
2022-11-07T22:35:06.307Z,14.90
2022-11-07T22:37:36.628Z,14.80
2022-11-07T22:40:03.840Z,14.90
2022-11-07T22:42:30.593Z,14.90
2022-11-07T22:44:58.783Z,14.90
2022-11-07T22:47:25.513Z,14.90
2022-11-07T22:49:52.231Z,14.80
2022-11-07T22:52:20.102Z,14.80
2022-11-07T22:54:46.917Z,14.80
2022-11-07T22:57:17.668Z,14.80
2022-11-07T22:59:44.942Z,14.80
2022-11-07T23:02:11.791Z,14.90
2022-11-07T23:04:38.569Z,14.80
2022-11-07T23:07:05.693Z,14.80
2022-11-07T23:09:33.848Z,14.80
2022-11-07T23:12:00.675Z,14.80
2022-11-07T23:14:27.565Z,14.80
2022-11-07T23:16:57.540Z,14.80
2022-11-07T23:19:26.965Z,14.70
2022-11-07T23:21:55.222Z,14.70
2022-11-07T23:24:22.493Z,14.70
2022-11-07T23:26:49.637Z,14.60
2022-11-07T23:29:19.362Z,14.60
2022-11-07T23:31:47.943Z,14.60
2022-11-07T23:34:15.919Z,14.60
2022-11-07T23:36:44.628Z,14.60
2022-11-07T23:39:15.589Z,14.60
2022-11-07T23:41:43.328Z,14.60
2022-11-07T23:44:11.075Z,14.60
2022-11-07T23:46:57.087Z,14.60
2022-11-07T23:49:42.243Z,14.60
2022-11-07T23:52:09.197Z,14.50
2022-11-07T23:54:54.601Z,14.50
2022-11-07T23:57:21.383Z,14.40
